Time;durP1;ratioP1;P1;durP2;ratioP2;P2;SDS_P1;SDS_P2;PMS_P1;PMS_P2;Temp;Humidity;BMP_temperature;BMP_pressure;BME280_temperature;BME280_humidity;BME280_pressure;Samples;Min_cycle;Max_cycle;Signal;HPM_P1;HPM_P2
2022/07/17 00:00:13;;;;;;;3.10;1.60;;;;;;;;;;524974;28;1358;-88
2022/07/17 00:00:28;;;;;;;4.25;1.77;;;;;;;;;;525569;28;1658;-88
2022/07/17 00:00:44;;;;;;;4.53;1.80;;;;;;;;;;524787;28;1267;-87
2022/07/17 00:00:59;;;;;;;3.87;1.57;;;;;;;;;;524215;28;1427;-87
2022/07/17 00:01:15;;;;;;;2.95;1.50;;;;;;;;;;525336;28;1487;-88
2022/07/17 00:01:30;;;;;;;3.93;1.63;;;;;;;;;;524380;28;1170;-87
2022/07/17 00:01:45;;;;;;;4.28;1.70;;;;;;;;;;524115;28;1199;-88
2022/07/17 00:02:01;;;;;;;3.60;1.70;;;;;;;;;;523616;28;1187;-88
2022/07/17 00:02:16;;;;;;;3.43;1.50;;;;;;;;;;521771;28;1230;-88
2022/07/17 00:02:31;;;;;;;3.13;1.48;;;;;;;;;;523850;28;1234;-88
2022/07/17 00:02:50;;;;;;;2.80;1.70;;;;;;;;;;523624;28;1159;-87
2022/07/17 00:03:06;;;;;;;2.65;1.60;;;;;;;;;;521655;28;1365;-88
2022/07/17 00:03:21;;;;;;;3.40;1.60;;;;;;;;;;522058;28;1341;-88
2022/07/17 00:03:37;;;;;;;3.77;1.70;;;;;;;;;;521986;28;873;-88
2022/07/17 00:03:52;;;;;;;3.60;1.77;;;;;;;;;;522874;28;824;-88
2022/07/17 00:04:07;;;;;;;4.75;1.80;;;;;;;;;;524993;28;816;-87
2022/07/17 00:04:23;;;;;;;4.33;1.70;;;;;;;;;;524154;28;1230;-87
2022/07/17 00:04:39;;;;;;;3.20;1.75;;;;;;;;;;524897;28;914;-87
2022/07/17 00:04:54;;;;;;;3.67;1.70;;;;;;;;;;526780;28;1542;-88
2022/07/17 00:05:10;;;;;;;4.67;1.70;;;;;;;;;;526965;28;835;-88
2022/07/17 00:05:25;;;;;;;5.00;1.70;;;;;;;;;;529505;27;1202;-88
2022/07/17 00:05:42;;;;;;;5.70;1.80;;;;;;;;;;526300;28;1311;-87
2022/07/17 00:05:57;;;;;;;5.07;1.90;;;;;;;;;;526302;28;875;-88
2022/07/17 00:06:13;;;;;;;3.97;2.00;;;;;;;;;;524481;28;1203;-87
2022/07/17 00:06:28;;;;;;;4.30;1.75;;;;;;;;;;526319;28;872;-87
2022/07/17 00:06:44;;;;;;;3.63;1.60;;;;;;;;;;526215;28;808;-88
2022/07/17 00:06:59;;;;;;;3.03;1.60;;;;;;;;;;525005;28;1278;-87
2022/07/17 00:07:14;;;;;;;3.70;1.70;;;;;;;;;;526480;28;918;-87
2022/07/17 00:07:30;;;;;;;3.33;1.80;;;;;;;;;;526756;28;1247;-88
2022/07/17 00:07:48;;;;;;;3.10;1.70;;;;;;;;;;528292;28;1361;-88
2022/07/17 00:08:06;;;;;;;3.92;1.80;;;;;;;;;;526210;28;1363;-87
2022/07/17 00:08:21;;;;;;;3.70;1.73;;;;;;;;;;525520;28;1484;-87
2022/07/17 00:08:37;;;;;;;4.20;1.80;;;;;;;;;;523318;28;1347;-87
2022/07/17 00:08:52;;;;;;;4.07;1.73;;;;;;;;;;521965;28;1199;-86
2022/07/17 00:09:07;;;;;;;3.57;1.60;;;;;;;;;;522044;28;772;-86
2022/07/17 00:09:23;;;;;;;3.57;1.60;;;;;;;;;;520384;28;1234;-86
2022/07/17 00:09:38;;;;;;;3.50;1.80;;;;;;;;;;521831;28;1337;-86
2022/07/17 00:09:54;;;;;;;3.77;1.93;;;;;;;;;;522694;28;978;-86
2022/07/17 00:10:09;;;;;;;3.63;1.70;;;;;;;;;;524270;28;792;-87
2022/07/17 00:10:25;;;;;;;3.33;1.60;;;;;;;;;;526266;28;803;-86
2022/07/17 00:10:42;;;;;;;3.60;1.60;;;;;;;;;;526494;28;1341;-86
2022/07/17 00:10:58;;;;;;;2.47;1.60;;;;;;;;;;526134;28;1369;-86
2022/07/17 00:11:13;;;;;;;2.73;1.60;;;;;;;;;;524928;28;1345;-88
2022/07/17 00:11:29;;;;;;;3.22;1.58;;;;;;;;;;526793;28;1264;-88
2022/07/17 00:11:44;;;;;;;2.83;1.70;;;;;;;;;;526495;28;1438;-88
2022/07/17 00:12:00;;;;;;;3.45;1.70;;;;;;;;;;524362;28;1182;-88
2022/07/17 00:12:15;;;;;;;4.13;1.67;;;;;;;;;;522270;28;1317;-88
2022/07/17 00:12:30;;;;;;;4.15;1.70;;;;;;;;;;524159;28;1268;-89
2022/07/17 00:12:46;;;;;;;4.83;1.70;;;;;;;;;;524380;28;1235;-89
2022/07/17 00:13:02;;;;;;;4.90;1.80;;;;;;;;;;524438;28;1171;-89
2022/07/17 00:13:18;;;;;;;4.35;1.70;;;;;;;;;;522306;28;1321;-88
2022/07/17 00:13:34;;;;;;;4.40;1.70;;;;;;;;;;524233;28;1362;-88
2022/07/17 00:13:49;;;;;;;4.05;1.75;;;;;;;;;;524104;28;1287;-88
2022/07/17 00:14:05;;;;;;;3.77;1.57;;;;;;;;;;524377;28;1049;-89
2022/07/17 00:14:20;;;;;;;3.67;1.60;;;;;;;;;;524140;28;1918;-89
2022/07/17 00:14:36;;;;;;;3.60;1.70;;;;;;;;;;522162;28;1301;-89
2022/07/17 00:14:51;;;;;;;3.55;1.80;;;;;;;;;;522919;28;907;-89
2022/07/17 00:15:07;;;;;;;3.70;1.80;;;;;;;;;;522202;28;1324;-89
2022/07/17 00:15:22;;;;;;;3.83;1.73;;;;;;;;;;522413;28;1283;-89
2022/07/17 00:15:38;;;;;;;4.33;1.70;;;;;;;;;;524737;28;1189;-88
2022/07/17 00:15:53;;;;;;;4.47;1.70;;;;;;;;;;524433;28;1133;-88
2022/07/17 00:16:08;;;;;;;3.33;1.63;;;;;;;;;;524158;28;1414;-88
2022/07/17 00:16:24;;;;;;;3.17;1.50;;;;;;;;;;522239;28;1186;-88
2022/07/17 00:16:39;;;;;;;3.45;1.52;;;;;;;;;;522209;28;764;-89
2022/07/17 00:16:55;;;;;;;3.37;1.70;;;;;;;;;;522106;28;1153;-88
2022/07/17 00:17:12;;;;;;;3.53;1.70;;;;;;;;;;519947;28;1364;-89
2022/07/17 00:17:27;;;;;;;3.83;1.70;;;;;;;;;;519970;28;1376;-89
2022/07/17 00:17:43;;;;;;;3.87;1.70;;;;;;;;;;520613;28;1175;-88
2022/07/17 00:17:59;;;;;;;5.15;1.83;;;;;;;;;;520692;28;839;-89
2022/07/17 00:18:14;;;;;;;5.10;1.80;;;;;;;;;;520654;28;1375;-89
2022/07/17 00:18:29;;;;;;;3.97;1.58;;;;;;;;;;523429;28;848;-89
2022/07/17 00:18:45;;;;;;;3.87;1.53;;;;;;;;;;522309;28;1217;-89
2022/07/17 00:19:00;;;;;;;3.50;1.67;;;;;;;;;;522827;28;1186;-88
2022/07/17 00:19:15;;;;;;;2.77;1.57;;;;;;;;;;523949;28;1184;-89
2022/07/17 00:19:32;;;;;;;2.80;1.50;;;;;;;;;;522218;28;1206;-89
2022/07/17 00:19:47;;;;;;;3.17;1.48;;;;;;;;;;520301;28;1245;-89
2022/07/17 00:20:04;;;;;;;3.50;1.50;;;;;;;;;;520731;28;966;-87
2022/07/17 00:20:19;;;;;;;3.05;1.40;;;;;;;;;;522248;28;1487;-88
2022/07/17 00:20:35;;;;;;;2.70;1.40;;;;;;;;;;524240;28;1342;-89
2022/07/17 00:20:51;;;;;;;3.33;1.60;;;;;;;;;;526892;28;1345;-89
2022/07/17 00:21:06;;;;;;;3.30;1.60;;;;;;;;;;524466;28;1267;-89
2022/07/17 00:21:21;;;;;;;3.55;1.45;;;;;;;;;;522276;28;1172;-89
2022/07/17 00:21:37;;;;;;;4.07;1.57;;;;;;;;;;522269;28;1255;-89
2022/07/17 00:21:52;;;;;;;3.60;1.70;;;;;;;;;;524334;28;1291;-88
2022/07/17 00:22:08;;;;;;;3.43;1.73;;;;;;;;;;524358;28;884;-89
2022/07/17 00:22:23;;;;;;;2.92;1.60;;;;;;;;;;522172;28;1295;-89
2022/07/17 00:22:38;;;;;;;3.13;1.40;;;;;;;;;;522086;28;1162;-89
2022/07/17 00:22:55;;;;;;;4.30;1.43;;;;;;;;;;524194;28;1340;-89
2022/07/17 00:23:10;;;;;;;3.92;1.52;;;;;;;;;;524796;28;899;-89
2022/07/17 00:23:26;;;;;;;3.27;1.60;;;;;;;;;;525038;28;1294;-89
2022/07/17 00:23:41;;;;;;;2.88;1.60;;;;;;;;;;522732;28;1351;-89
2022/07/17 00:23:56;;;;;;;3.03;1.47;;;;;;;;;;524590;28;1048;-89
2022/07/17 00:24:19;;;;;;;4.27;1.47;;;;;;;;;;525113;28;1212;-89
2022/07/17 00:24:35;;;;;;;4.28;1.55;;;;;;;;;;526480;28;1318;-89
2022/07/17 00:24:50;;;;;;;3.30;1.60;;;;;;;;;;526320;28;1286;-89
2022/07/17 00:25:06;;;;;;;3.60;1.60;;;;;;;;;;524773;28;835;-89
2022/07/17 00:25:22;;;;;;;4.38;1.60;;;;;;;;;;524273;28;1348;-89
2022/07/17 00:25:37;;;;;;;4.25;1.70;;;;;;;;;;524553;28;819;-89
2022/07/17 00:25:54;;;;;;;3.57;1.53;;;;;;;;;;522395;28;1183;-88
2022/07/17 00:26:09;;;;;;;3.33;1.42;;;;;;;;;;522369;28;1355;-88
2022/07/17 00:26:25;;;;;;;3.10;1.50;;;;;;;;;;520772;28;1278;-89
2022/07/17 00:26:41;;;;;;;2.70;1.58;;;;;;;;;;524009;28;1176;-89
2022/07/17 00:26:56;;;;;;;2.67;1.60;;;;;;;;;;524273;28;1173;-89
2022/07/17 00:27:12;;;;;;;3.70;1.67;;;;;;;;;;525036;28;1037;-89
2022/07/17 00:27:27;;;;;;;4.65;1.60;;;;;;;;;;525494;28;1253;-88
2022/07/17 00:27:42;;;;;;;4.50;1.77;;;;;;;;;;524072;28;1277;-89
2022/07/17 00:27:58;;;;;;;4.10;1.70;;;;;;;;;;523962;28;820;-89
2022/07/17 00:28:13;;;;;;;3.20;1.40;;;;;;;;;;522834;28;900;-89
2022/07/17 00:28:29;;;;;;;2.57;1.47;;;;;;;;;;526755;28;816;-89
2022/07/17 00:28:44;;;;;;;3.10;1.50;;;;;;;;;;526671;28;1758;-88
2022/07/17 00:29:02;;;;;;;3.87;1.53;;;;;;;;;;526062;28;1319;-89
2022/07/17 00:29:18;;;;;;;4.00;1.67;;;;;;;;;;526411;28;1203;-88
2022/07/17 00:29:34;;;;;;;4.90;1.77;;;;;;;;;;526971;28;820;-89
2022/07/17 00:29:50;;;;;;;4.72;1.60;;;;;;;;;;526560;28;1306;-90
2022/07/17 00:30:06;;;;;;;4.27;1.63;;;;;;;;;;524533;28;1161;-91
2022/07/17 00:30:21;;;;;;;4.20;1.63;;;;;;;;;;522521;28;1297;-91
2022/07/17 00:30:38;;;;;;;3.90;1.50;;;;;;;;;;521158;28;1390;-90
2022/07/17 00:30:53;;;;;;;4.07;1.50;;;;;;;;;;520982;28;1437;-90
2022/07/17 00:31:08;;;;;;;4.00;1.63;;;;;;;;;;520173;28;1168;-89
2022/07/17 00:31:24;;;;;;;3.20;1.50;;;;;;;;;;520072;28;872;-89
2022/07/17 00:31:39;;;;;;;3.43;1.60;;;;;;;;;;521842;28;875;-90
2022/07/17 00:31:55;;;;;;;4.43;1.67;;;;;;;;;;522127;28;1109;-90
2022/07/17 00:32:10;;;;;;;4.27;1.60;;;;;;;;;;520572;28;1310;-90
2022/07/17 00:32:25;;;;;;;4.22;1.58;;;;;;;;;;522727;28;919;-90
2022/07/17 00:32:41;;;;;;;4.40;1.50;;;;;;;;;;524640;28;1032;-90
2022/07/17 00:32:56;;;;;;;4.40;1.58;;;;;;;;;;524321;28;1183;-91
2022/07/17 00:33:11;;;;;;;4.83;1.60;;;;;;;;;;525354;28;1224;-90
2022/07/17 00:33:27;;;;;;;4.57;1.57;;;;;;;;;;524467;28;1293;-92
2022/07/17 00:33:42;;;;;;;3.50;1.58;;;;;;;;;;524616;28;1190;-90
2022/07/17 00:33:58;;;;;;;2.70;1.50;;;;;;;;;;524608;28;1212;-90
2022/07/17 00:34:14;;;;;;;2.90;1.40;;;;;;;;;;526454;28;1239;-91
2022/07/17 00:34:30;;;;;;;3.15;1.50;;;;;;;;;;526272;28;1378;-90
2022/07/17 00:34:45;;;;;;;3.72;1.55;;;;;;;;;;526366;28;1196;-89
2022/07/17 00:35:01;;;;;;;4.93;1.70;;;;;;;;;;522204;28;1335;-90
2022/07/17 00:35:16;;;;;;;4.55;1.80;;;;;;;;;;522501;28;1294;-91
2022/07/17 00:35:32;;;;;;;3.83;1.67;;;;;;;;;;518374;28;1203;-90
2022/07/17 00:35:47;;;;;;;3.17;1.50;;;;;;;;;;522176;28;1295;-90
2022/07/17 00:36:04;;;;;;;3.27;1.40;;;;;;;;;;520311;28;1160;-90
2022/07/17 00:36:19;;;;;;;3.65;1.50;;;;;;;;;;520354;28;932;-87
2022/07/17 00:36:35;;;;;;;3.17;1.53;;;;;;;;;;522404;28;1260;-87
2022/07/17 00:36:51;;;;;;;2.72;1.50;;;;;;;;;;523143;28;990;-87
2022/07/17 00:37:06;;;;;;;4.10;1.60;;;;;;;;;;525206;28;947;-86
2022/07/17 00:37:22;;;;;;;4.23;1.50;;;;;;;;;;527190;28;927;-86
2022/07/17 00:37:38;;;;;;;3.13;1.50;;;;;;;;;;526725;28;1142;-87
2022/07/17 00:37:54;;;;;;;3.30;1.60;;;;;;;;;;527380;28;1358;-87
2022/07/17 00:38:10;;;;;;;4.20;1.70;;;;;;;;;;528759;28;807;-87
2022/07/17 00:38:25;;;;;;;3.60;1.50;;;;;;;;;;528774;28;870;-87
2022/07/17 00:38:40;;;;;;;2.43;1.30;;;;;;;;;;528710;28;1041;-87
2022/07/17 00:38:56;;;;;;;3.57;1.63;;;;;;;;;;528738;28;1221;-87
2022/07/17 00:39:14;;;;;;;4.20;1.80;;;;;;;;;;528771;28;1329;-87
2022/07/17 00:39:31;;;;;;;3.58;1.40;;;;;;;;;;528791;28;855;-87
2022/07/17 00:39:46;;;;;;;3.20;1.40;;;;;;;;;;528791;28;883;-87
2022/07/17 00:40:02;;;;;;;3.40;1.50;;;;;;;;;;528811;28;1025;-87
2022/07/17 00:40:21;;;;;;;3.22;1.60;;;;;;;;;;526335;28;1162;-87
2022/07/17 00:40:36;;;;;;;2.85;1.45;;;;;;;;;;524364;28;1615;-86
2022/07/17 00:40:58;;;;;;;3.57;1.40;;;;;;;;;;523527;28;1314;-87
2022/07/17 00:41:14;;;;;;;5.50;1.70;;;;;;;;;;526446;28;879;-87
2022/07/17 00:41:30;;;;;;;5.45;1.63;;;;;;;;;;526585;28;931;-87
2022/07/17 00:41:45;;;;;;;4.13;1.65;;;;;;;;;;524354;28;1302;-86
2022/07/17 00:42:01;;;;;;;3.43;1.50;;;;;;;;;;524374;28;1318;-87
2022/07/17 00:42:17;;;;;;;4.13;1.40;;;;;;;;;;526046;28;1399;-87
2022/07/17 00:42:32;;;;;;;3.90;1.55;;;;;;;;;;526373;28;1191;-87
2022/07/17 00:42:48;;;;;;;3.30;1.60;;;;;;;;;;526507;28;898;-86
2022/07/17 00:43:03;;;;;;;3.60;1.45;;;;;;;;;;526502;28;1193;-87
2022/07/17 00:43:19;;;;;;;3.10;1.30;;;;;;;;;;526679;28;847;-87
2022/07/17 00:43:34;;;;;;;2.30;1.35;;;;;;;;;;524861;28;1237;-87
2022/07/17 00:43:50;;;;;;;2.73;1.40;;;;;;;;;;526734;28;855;-87
2022/07/17 00:44:07;;;;;;;4.55;1.48;;;;;;;;;;526723;28;1357;-87
2022/07/17 00:44:26;;;;;;;4.35;1.48;;;;;;;;;;525922;28;1250;-87
2022/07/17 00:44:42;;;;;;;3.90;1.60;;;;;;;;;;522350;28;1114;-87
2022/07/17 00:44:58;;;;;;;4.60;1.50;;;;;;;;;;525685;28;1456;-87
2022/07/17 00:45:13;;;;;;;3.58;1.40;;;;;;;;;;526669;28;986;-87
2022/07/17 00:45:29;;;;;;;2.90;1.40;;;;;;;;;;527974;28;1030;-87
2022/07/17 00:45:44;;;;;;;2.55;1.45;;;;;;;;;;526598;28;1187;-87
2022/07/17 00:46:02;;;;;;;3.10;1.50;;;;;;;;;;526682;28;1269;-87
2022/07/17 00:46:18;;;;;;;4.35;1.70;;;;;;;;;;524345;28;1466;-87
2022/07/17 00:46:34;;;;;;;3.90;1.57;;;;;;;;;;524985;28;1261;-87
2022/07/17 00:46:49;;;;;;;3.83;1.45;;;;;;;;;;526332;28;1417;-87
2022/07/17 00:47:13;;;;;;;3.93;1.50;;;;;;;;;;526539;28;781;-86
2022/07/17 00:47:28;;;;;;;3.95;1.45;;;;;;;;;;526360;28;931;-87
2022/07/17 00:48:00;;;;;;;3.50;1.40;;;;;;;;;;524384;28;1230;-87
2022/07/17 00:48:16;;;;;;;3.90;1.53;;;;;;;;;;524382;28;1306;-88
2022/07/17 00:48:32;;;;;;;3.27;1.53;;;;;;;;;;526005;28;1326;-87
2022/07/17 00:48:47;;;;;;;3.00;1.50;;;;;;;;;;526552;28;839;-87
2022/07/17 00:49:03;;;;;;;2.80;1.50;;;;;;;;;;526609;28;855;-87
2022/07/17 00:49:18;;;;;;;2.50;1.40;;;;;;;;;;526295;28;1252;-87
2022/07/17 00:49:34;;;;;;;2.40;1.33;;;;;;;;;;527003;28;1216;-87
2022/07/17 00:49:49;;;;;;;3.50;1.50;;;;;;;;;;528603;28;843;-87
2022/07/17 00:50:05;;;;;;;3.50;1.50;;;;;;;;;;529006;27;1170;-87
2022/07/17 00:50:26;;;;;;;2.30;1.35;;;;;;;;;;528236;28;1196;-87
2022/07/17 00:50:43;;;;;;;2.85;1.45;;;;;;;;;;526297;28;1246;-87
2022/07/17 00:50:59;;;;;;;4.15;1.50;;;;;;;;;;526558;28;1387;-87
2022/07/17 00:51:14;;;;;;;4.35;1.40;;;;;;;;;;526474;28;1249;-87
2022/07/17 00:51:30;;;;;;;3.37;1.30;;;;;;;;;;526533;28;1208;-87
2022/07/17 00:51:45;;;;;;;3.30;1.38;;;;;;;;;;528821;28;1153;-87
2022/07/17 00:52:00;;;;;;;5.10;1.60;;;;;;;;;;526600;28;1305;-87
2022/07/17 00:52:17;;;;;;;4.43;1.53;;;;;;;;;;524607;28;1148;-87
2022/07/17 00:52:33;;;;;;;2.88;1.40;;;;;;;;;;522316;28;1516;-87
2022/07/17 00:52:49;;;;;;;3.38;1.50;;;;;;;;;;522471;28;1014;-87
2022/07/17 00:53:05;;;;;;;3.72;1.65;;;;;;;;;;522448;28;803;-87
2022/07/17 00:53:21;;;;;;;4.18;1.60;;;;;;;;;;522860;28;1252;-87
2022/07/17 00:53:37;;;;;;;3.50;1.42;;;;;;;;;;523033;28;1261;-87
2022/07/17 00:53:55;;;;;;;2.72;1.50;;;;;;;;;;525269;28;1243;-87
2022/07/17 00:54:11;;;;;;;3.50;1.67;;;;;;;;;;527780;28;1081;-87
2022/07/17 00:54:28;;;;;;;3.25;1.50;;;;;;;;;;526461;28;1921;-87
2022/07/17 00:54:44;;;;;;;2.88;1.30;;;;;;;;;;524529;28;1225;-87
2022/07/17 00:55:00;;;;;;;3.03;1.38;;;;;;;;;;524382;28;1101;-87
2022/07/17 00:55:17;;;;;;;2.92;1.40;;;;;;;;;;524221;28;1354;-87
2022/07/17 00:55:33;;;;;;;3.78;1.50;;;;;;;;;;525678;28;1366;-87
2022/07/17 00:55:49;;;;;;;3.58;1.40;;;;;;;;;;527872;28;1113;-87
2022/07/17 00:56:05;;;;;;;4.05;1.30;;;;;;;;;;528799;28;1346;-87
2022/07/17 00:56:22;;;;;;;3.55;1.30;;;;;;;;;;528499;28;1021;-87
2022/07/17 00:56:41;;;;;;;3.13;1.30;;;;;;;;;;526380;28;1205;-87
2022/07/17 00:56:58;;;;;;;3.60;1.58;;;;;;;;;;524276;28;1316;-87
2022/07/17 00:57:15;;;;;;;3.45;1.40;;;;;;;;;;523843;28;1337;-87
2022/07/17 00:57:31;;;;;;;3.05;1.40;;;;;;;;;;523808;28;1268;-86
2022/07/17 00:57:47;;;;;;;3.20;1.50;;;;;;;;;;524320;28;1400;-86
2022/07/17 00:58:04;;;;;;;3.25;1.42;;;;;;;;;;524390;28;1101;-87
2022/07/17 00:58:22;;;;;;;3.25;1.33;;;;;;;;;;524415;28;848;-87
2022/07/17 00:58:38;;;;;;;3.05;1.33;;;;;;;;;;526372;28;1432;-87
2022/07/17 00:58:53;;;;;;;2.85;1.40;;;;;;;;;;528329;28;975;-87
2022/07/17 00:59:13;;;;;;;2.92;1.50;;;;;;;;;;528507;28;1205;-87
2022/07/17 00:59:31;;;;;;;2.75;1.40;;;;;;;;;;526543;28;1365;-87
2022/07/17 00:59:46;;;;;;;3.70;1.30;;;;;;;;;;528515;28;1389;-87
2022/07/17 01:00:08;;;;;;;2.87;1.20;;;;;;;;;;528881;28;847;-87
2022/07/17 01:00:24;;;;;;;3.08;1.40;;;;;;;;;;526555;28;915;-87
2022/07/17 01:00:39;;;;;;;3.55;1.40;;;;;;;;;;526314;28;1314;-86
2022/07/17 01:00:55;;;;;;;3.30;1.40;;;;;;;;;;526237;28;903;-87
2022/07/17 01:01:10;;;;;;;2.25;1.40;;;;;;;;;;526310;28;946;-86
2022/07/17 01:01:26;;;;;;;2.20;1.47;;;;;;;;;;526334;28;1053;-87
2022/07/17 01:01:41;;;;;;;2.72;1.52;;;;;;;;;;525572;28;1179;-87
2022/07/17 01:01:57;;;;;;;2.93;1.60;;;;;;;;;;524473;28;1165;-87
2022/07/17 01:02:13;;;;;;;3.17;1.50;;;;;;;;;;524763;28;1046;-87
2022/07/17 01:02:28;;;;;;;3.47;1.40;;;;;;;;;;524918;28;1429;-87
2022/07/17 01:02:50;;;;;;;3.63;1.48;;;;;;;;;;524456;28;1326;-87
2022/07/17 01:03:05;;;;;;;2.95;1.50;;;;;;;;;;522154;28;1395;-90
2022/07/17 01:03:23;;;;;;;3.57;1.60;;;;;;;;;;520191;28;1229;-90
2022/07/17 01:03:38;;;;;;;3.38;1.52;;;;;;;;;;521711;28;1090;-89
2022/07/17 01:03:53;;;;;;;2.93;1.40;;;;;;;;;;522604;28;1453;-89
2022/07/17 01:04:09;;;;;;;3.03;1.40;;;;;;;;;;524307;28;1476;-90
2022/07/17 01:04:25;;;;;;;2.55;1.38;;;;;;;;;;524591;28;1393;-90
2022/07/17 01:04:41;;;;;;;2.70;1.30;;;;;;;;;;528042;28;931;-90
2022/07/17 01:04:56;;;;;;;3.28;1.40;;;;;;;;;;529250;27;1171;-90
2022/07/17 01:05:12;;;;;;;2.83;1.40;;;;;;;;;;529201;27;1160;-90
2022/07/17 01:05:28;;;;;;;2.47;1.40;;;;;;;;;;528581;28;1256;-89
2022/07/17 01:05:44;;;;;;;3.20;1.60;;;;;;;;;;525910;28;1210;-89
2022/07/17 01:06:00;;;;;;;4.28;1.58;;;;;;;;;;523005;28;1275;-90
2022/07/17 01:06:15;;;;;;;3.38;1.40;;;;;;;;;;520126;28;1455;-90
2022/07/17 01:06:31;;;;;;;3.20;1.40;;;;;;;;;;520260;28;1309;-90
2022/07/17 01:06:46;;;;;;;3.67;1.55;;;;;;;;;;520840;28;943;-90
2022/07/17 01:07:04;;;;;;;2.70;1.40;;;;;;;;;;519942;28;1236;-90
2022/07/17 01:07:19;;;;;;;3.20;1.35;;;;;;;;;;521978;28;1329;-89
2022/07/17 01:07:34;;;;;;;3.23;1.30;;;;;;;;;;521867;28;1135;-90
2022/07/17 01:07:51;;;;;;;3.40;1.40;;;;;;;;;;522105;28;1266;-90
2022/07/17 01:08:07;;;;;;;3.30;1.40;;;;;;;;;;523001;28;942;-90
2022/07/17 01:08:23;;;;;;;3.40;1.40;;;;;;;;;;521525;28;1264;-88
2022/07/17 01:08:39;;;;;;;4.15;1.60;;;;;;;;;;518124;28;1408;-90
2022/07/17 01:08:54;;;;;;;5.30;1.60;;;;;;;;;;517980;28;1220;-90
2022/07/17 01:09:11;;;;;;;4.20;1.40;;;;;;;;;;520249;28;1167;-90
2022/07/17 01:09:27;;;;;;;2.65;1.30;;;;;;;;;;520875;28;927;-90
2022/07/17 01:09:43;;;;;;;3.35;1.50;;;;;;;;;;520920;28;1369;-90
2022/07/17 01:09:58;;;;;;;3.93;1.70;;;;;;;;;;522100;28;1203;-89
2022/07/17 01:10:19;;;;;;;4.40;1.53;;;;;;;;;;522278;28;1151;-89
2022/07/17 01:10:34;;;;;;;4.50;1.50;;;;;;;;;;522322;28;1285;-90
2022/07/17 01:10:50;;;;;;;3.80;1.37;;;;;;;;;;524180;28;1175;-90
2022/07/17 01:11:08;;;;;;;3.45;1.30;;;;;;;;;;526448;28;1265;-89
2022/07/17 01:11:24;;;;;;;3.60;1.35;;;;;;;;;;526393;28;943;-89
2022/07/17 01:11:39;;;;;;;3.67;1.58;;;;;;;;;;525865;28;868;-89
2022/07/17 01:11:55;;;;;;;4.40;1.53;;;;;;;;;;525809;28;1334;-89
2022/07/17 01:12:10;;;;;;;5.45;1.40;;;;;;;;;;524271;28;1284;-89
2022/07/17 01:12:27;;;;;;;4.60;1.40;;;;;;;;;;522338;28;1340;-89
2022/07/17 01:12:44;;;;;;;3.90;1.60;;;;;;;;;;524300;28;1011;-89
2022/07/17 01:13:00;;;;;;;3.30;1.58;;;;;;;;;;523083;28;1321;-89
2022/07/17 01:13:15;;;;;;;3.13;1.40;;;;;;;;;;524111;28;1214;-89
2022/07/17 01:13:31;;;;;;;3.90;1.60;;;;;;;;;;524125;28;1191;-89
2022/07/17 01:13:47;;;;;;;4.00;1.60;;;;;;;;;;524021;28;1250;-89
2022/07/17 01:14:02;;;;;;;4.10;1.40;;;;;;;;;;524947;28;848;-89
2022/07/17 01:14:18;;;;;;;4.03;1.50;;;;;;;;;;524241;28;1910;-89
2022/07/17 01:14:33;;;;;;;3.30;1.60;;;;;;;;;;524172;28;1172;-88
2022/07/17 01:14:49;;;;;;;2.55;1.40;;;;;;;;;;524406;28;804;-89
2022/07/17 01:15:05;;;;;;;2.80;1.40;;;;;;;;;;522395;28;1315;-89
2022/07/17 01:15:21;;;;;;;3.38;1.50;;;;;;;;;;520644;28;1160;-89
2022/07/17 01:15:38;;;;;;;4.25;1.42;;;;;;;;;;521651;28;1207;-89
2022/07/17 01:15:54;;;;;;;3.80;1.35;;;;;;;;;;518242;28;1259;-88
2022/07/17 01:16:09;;;;;;;2.40;1.40;;;;;;;;;;518168;28;1145;-88
2022/07/17 01:16:25;;;;;;;3.38;1.40;;;;;;;;;;521702;28;1232;-88
2022/07/17 01:16:41;;;;;;;3.35;1.33;;;;;;;;;;522230;28;895;-88
2022/07/17 01:16:57;;;;;;;2.93;1.30;;;;;;;;;;522379;28;1002;-89
2022/07/17 01:17:12;;;;;;;2.75;1.30;;;;;;;;;;520938;28;1175;-89
2022/07/17 01:17:28;;;;;;;1.97;1.20;;;;;;;;;;522917;28;1253;-88
2022/07/17 01:17:43;;;;;;;3.22;1.30;;;;;;;;;;524223;28;926;-88
2022/07/17 01:18:03;;;;;;;3.78;1.40;;;;;;;;;;524259;28;1179;-88
2022/07/17 01:18:18;;;;;;;3.05;1.38;;;;;;;;;;522899;28;1248;-88
2022/07/17 01:18:34;;;;;;;2.92;1.40;;;;;;;;;;524119;28;1179;-88
2022/07/17 01:18:50;;;;;;;2.53;1.40;;;;;;;;;;524086;28;999;-88
2022/07/17 01:19:07;;;;;;;3.22;1.50;;;;;;;;;;524991;28;1195;-89
2022/07/17 01:19:22;;;;;;;3.10;1.48;;;;;;;;;;522336;28;1343;-88
2022/07/17 01:19:37;;;;;;;3.30;1.40;;;;;;;;;;520033;28;1317;-88
2022/07/17 01:19:54;;;;;;;3.63;1.30;;;;;;;;;;521832;28;1226;-88
2022/07/17 01:20:10;;;;;;;3.13;1.27;;;;;;;;;;522146;28;1219;-86
2022/07/17 01:20:26;;;;;;;3.58;1.52;;;;;;;;;;520152;28;1315;-87
2022/07/17 01:20:44;;;;;;;3.30;1.40;;;;;;;;;;524313;28;1195;-87
2022/07/17 01:21:06;;;;;;;3.30;1.42;;;;;;;;;;524304;28;1023;-90
2022/07/17 01:21:22;;;;;;;3.75;1.50;;;;;;;;;;524592;28;1354;-89
2022/07/17 01:21:45;;;;;;;3.17;1.55;;;;;;;;;;524556;28;785;-90
2022/07/17 01:22:00;;;;;;;3.58;1.50;;;;;;;;;;524513;28;1002;-91
2022/07/17 01:22:16;;;;;;;3.83;1.50;;;;;;;;;;525437;28;1295;-90
2022/07/17 01:22:31;;;;;;;3.43;1.40;;;;;;;;;;528792;28;1131;-90
2022/07/17 01:22:49;;;;;;;4.70;1.40;;;;;;;;;;526544;28;1124;-90
2022/07/17 01:23:06;;;;;;;3.65;1.45;;;;;;;;;;525704;28;1095;-87
2022/07/17 01:23:21;;;;;;;4.33;1.40;;;;;;;;;;524237;28;1295;-87
2022/07/17 01:23:37;;;;;;;4.35;1.30;;;;;;;;;;522225;28;1202;-87
2022/07/17 01:23:52;;;;;;;2.97;1.37;;;;;;;;;;522185;28;806;-87
2022/07/17 01:24:08;;;;;;;5.13;1.60;;;;;;;;;;523039;28;869;-87
2022/07/17 01:24:23;;;;;;;4.72;1.70;;;;;;;;;;522126;28;1183;-86
2022/07/17 01:24:42;;;;;;;3.47;1.67;;;;;;;;;;520655;28;1140;-86
2022/07/17 01:24:57;;;;;;;3.15;1.50;;;;;;;;;;521349;28;899;-87
2022/07/17 01:25:14;;;;;;;3.65;1.60;;;;;;;;;;524823;28;1222;-87
2022/07/17 01:25:30;;;;;;;3.95;1.67;;;;;;;;;;523822;28;1380;-86
2022/07/17 01:25:46;;;;;;;3.08;1.48;;;;;;;;;;522012;28;792;-87
2022/07/17 01:26:01;;;;;;;2.75;1.50;;;;;;;;;;521957;28;1230;-87
2022/07/17 01:26:17;;;;;;;2.92;1.58;;;;;;;;;;523180;28;860;-87
2022/07/17 01:26:32;;;;;;;2.70;1.60;;;;;;;;;;526090;28;982;-87
2022/07/17 01:26:49;;;;;;;3.53;1.48;;;;;;;;;;526388;28;1010;-88
2022/07/17 01:27:04;;;;;;;4.78;1.60;;;;;;;;;;526239;28;1401;-87
2022/07/17 01:27:19;;;;;;;3.70;1.60;;;;;;;;;;526114;28;1049;-87
2022/07/17 01:27:35;;;;;;;2.60;1.53;;;;;;;;;;526337;28;1163;-87
2022/07/17 01:27:51;;;;;;;2.90;1.50;;;;;;;;;;526650;28;906;-87
2022/07/17 01:28:07;;;;;;;3.33;1.52;;;;;;;;;;526985;28;911;-87
2022/07/17 01:28:22;;;;;;;4.40;1.67;;;;;;;;;;526318;28;864;-88
2022/07/17 01:28:37;;;;;;;4.27;1.63;;;;;;;;;;526037;28;1241;-87
2022/07/17 01:28:53;;;;;;;3.45;1.50;;;;;;;;;;526943;28;875;-87
2022/07/17 01:29:10;;;;;;;3.03;1.40;;;;;;;;;;528324;28;1240;-87
2022/07/17 01:29:25;;;;;;;2.83;1.40;;;;;;;;;;527480;28;1261;-88
2022/07/17 01:29:41;;;;;;;3.47;1.40;;;;;;;;;;526248;28;894;-88
2022/07/17 01:29:57;;;;;;;3.23;1.50;;;;;;;;;;526189;28;982;-87
2022/07/17 01:30:12;;;;;;;3.08;1.42;;;;;;;;;;526139;28;840;-86
2022/07/17 01:30:28;;;;;;;3.47;1.50;;;;;;;;;;526191;28;1537;-88
2022/07/17 01:30:49;;;;;;;4.28;1.60;;;;;;;;;;526317;28;1314;-87
2022/07/17 01:31:04;;;;;;;4.40;1.50;;;;;;;;;;526478;28;1014;-87
2022/07/17 01:31:19;;;;;;;3.60;1.40;;;;;;;;;;525033;28;1221;-87
2022/07/17 01:31:35;;;;;;;3.45;1.50;;;;;;;;;;526162;28;989;-87
2022/07/17 01:31:50;;;;;;;3.70;1.60;;;;;;;;;;526120;28;1150;-87
2022/07/17 01:32:06;;;;;;;3.73;1.50;;;;;;;;;;524009;28;1497;-87
2022/07/17 01:32:31;;;;;;;3.58;1.40;;;;;;;;;;524106;28;1247;-87
2022/07/17 01:32:46;;;;;;;3.85;1.50;;;;;;;;;;524277;28;993;-87
2022/07/17 01:33:02;;;;;;;4.10;1.60;;;;;;;;;;525604;28;1292;-87
2022/07/17 01:33:18;;;;;;;3.80;1.48;;;;;;;;;;526216;28;1093;-87
2022/07/17 01:33:33;;;;;;;3.35;1.48;;;;;;;;;;526238;28;1010;-87
2022/07/17 01:33:49;;;;;;;3.03;1.57;;;;;;;;;;525378;28;1333;-88
2022/07/17 01:34:06;;;;;;;3.00;1.40;;;;;;;;;;524646;28;1480;-88
2022/07/17 01:34:21;;;;;;;2.80;1.45;;;;;;;;;;527729;28;1906;-87
2022/07/17 01:34:37;;;;;;;2.80;1.50;;;;;;;;;;525951;28;1146;-87
2022/07/17 01:34:52;;;;;;;2.72;1.38;;;;;;;;;;524780;28;1307;-87
2022/07/17 01:35:10;;;;;;;3.23;1.40;;;;;;;;;;526378;28;867;-87
2022/07/17 01:35:25;;;;;;;3.45;1.40;;;;;;;;;;524248;28;1452;-87
2022/07/17 01:35:41;;;;;;;4.17;1.40;;;;;;;;;;524284;28;1271;-87
2022/07/17 01:35:57;;;;;;;3.95;1.30;;;;;;;;;;524289;28;1102;-87
2022/07/17 01:36:13;;;;;;;3.35;1.33;;;;;;;;;;520518;28;1910;-87
2022/07/17 01:36:28;;;;;;;3.45;1.45;;;;;;;;;;520806;28;1235;-87
2022/07/17 01:36:44;;;;;;;4.18;1.50;;;;;;;;;;522105;28;1169;-87
2022/07/17 01:36:59;;;;;;;4.40;1.60;;;;;;;;;;522360;28;1198;-87
2022/07/17 01:37:15;;;;;;;3.33;1.63;;;;;;;;;;526249;28;1222;-87
2022/07/17 01:37:30;;;;;;;3.80;1.55;;;;;;;;;;526098;28;1163;-87
2022/07/17 01:37:46;;;;;;;4.50;1.40;;;;;;;;;;526274;28;856;-87
2022/07/17 01:38:01;;;;;;;4.72;1.50;;;;;;;;;;523879;28;1185;-87
2022/07/17 01:38:16;;;;;;;4.37;1.60;;;;;;;;;;524084;28;1068;-88
2022/07/17 01:38:32;;;;;;;3.47;1.60;;;;;;;;;;520063;28;1191;-87
2022/07/17 01:38:47;;;;;;;3.27;1.60;;;;;;;;;;518648;28;813;-87
2022/07/17 01:39:03;;;;;;;2.70;1.60;;;;;;;;;;518399;28;801;-87
2022/07/17 01:39:52;;;;;;;2.80;1.50;;;;;;;;;;519121;28;1255;-87
2022/07/17 01:39:55;;;;;;;2.40;1.40;;;;;;;;;;521096;28;1292;-87
2022/07/17 01:40:12;;;;;;;2.50;1.50;;;;;;;;;;525289;28;1322;-87